Time;durP1;ratioP1;P1;durP2;ratioP2;P2;SDS_P1;SDS_P2;PMS_P1;PMS_P2;Temp;Humidity;BMP_temperature;BMP_pressure;BME280_temperature;BME280_humidity;BME280_pressure;Samples;Min_cycle;Max_cycle;Signal;HPM_P1;HPM_P2
2024/02/02 00:02:15;;;;;;;20.65;8.68;;;;;;;;;;5093768;28;20052;-61
2024/02/02 00:04:42;;;;;;;28.33;10.07;;;;;;;;;;5093407;28;20055;-62
2024/02/02 00:07:10;;;;;;;25.73;9.57;;;;;;;;;;5093183;28;20052;-62
2024/02/02 00:09:37;;;;;;;22.23;8.63;;;;;;;;;;5093370;28;20044;-61
2024/02/02 00:12:06;;;;;;;21.80;8.45;;;;;;;;;;5092491;28;20075;-61
2024/02/02 00:14:33;;;;;;;21.65;8.55;;;;;;;;;;5088226;28;20057;-61
2024/02/02 00:17:00;;;;;;;21.23;8.68;;;;;;;;;;5072440;28;20048;-61
2024/02/02 00:19:27;;;;;;;22.02;8.38;;;;;;;;;;5072765;28;20048;-61
2024/02/02 00:21:54;;;;;;;20.48;7.57;;;;;;;;;;5072637;28;20518;-61
2024/02/02 00:24:22;;;;;;;21.08;7.43;;;;;;;;;;5072751;28;20379;-61
2024/02/02 00:26:49;;;;;;;26.05;7.45;;;;;;;;;;5072873;28;20060;-61
2024/02/02 00:29:15;;;;;;;21.40;7.45;;;;;;;;;;5072426;28;20053;-61
2024/02/02 00:31:42;;;;;;;22.65;8.00;;;;;;;;;;5072823;28;20505;-62
2024/02/02 00:34:09;;;;;;;21.70;7.60;;;;;;;;;;5072474;28;20057;-61
2024/02/02 00:36:36;;;;;;;23.30;7.90;;;;;;;;;;5072806;28;20059;-61
2024/02/02 00:39:03;;;;;;;18.80;6.93;;;;;;;;;;5072355;28;20426;-61
2024/02/02 00:41:31;;;;;;;20.23;7.30;;;;;;;;;;5072832;28;20427;-61
2024/02/02 00:43:58;;;;;;;23.65;8.43;;;;;;;;;;5072347;28;20057;-61
2024/02/02 00:46:25;;;;;;;23.17;8.45;;;;;;;;;;5072669;28;20048;-61
2024/02/02 00:48:52;;;;;;;20.67;7.05;;;;;;;;;;5072679;28;20061;-61
2024/02/02 00:51:18;;;;;;;25.00;7.85;;;;;;;;;;5072629;28;20509;-61
2024/02/02 00:53:45;;;;;;;22.55;7.55;;;;;;;;;;5072233;28;20499;-61
2024/02/02 00:56:13;;;;;;;18.33;6.50;;;;;;;;;;5073121;28;20058;-61
2024/02/02 00:58:41;;;;;;;18.92;6.68;;;;;;;;;;5072534;28;20048;-61
2024/02/02 01:01:08;;;;;;;20.58;7.45;;;;;;;;;;5072446;28;20134;-61
2024/02/02 01:03:37;;;;;;;21.63;6.82;;;;;;;;;;5072406;28;20513;-61
2024/02/02 01:06:05;;;;;;;16.92;7.10;;;;;;;;;;5072417;28;20059;-61
2024/02/02 01:08:32;;;;;;;19.75;7.03;;;;;;;;;;5072249;28;20491;-62
2024/02/02 01:10:59;;;;;;;28.17;7.90;;;;;;;;;;5072376;28;20052;-61
2024/02/02 01:13:26;;;;;;;18.60;7.30;;;;;;;;;;5072114;28;20063;-61
2024/02/02 01:15:54;;;;;;;22.55;7.35;;;;;;;;;;5071932;28;20056;-61
2024/02/02 01:18:21;;;;;;;22.15;8.05;;;;;;;;;;5072286;28;20483;-61
2024/02/02 01:20:48;;;;;;;25.35;8.40;;;;;;;;;;5072357;28;20486;-62
2024/02/02 01:23:15;;;;;;;19.50;8.02;;;;;;;;;;5072338;28;20533;-61
2024/02/02 01:25:42;;;;;;;28.90;9.18;;;;;;;;;;5070861;28;20052;-61
2024/02/02 01:28:08;;;;;;;25.58;8.93;;;;;;;;;;5070968;28;20041;-61
2024/02/02 01:30:35;;;;;;;20.25;7.60;;;;;;;;;;5072217;28;20048;-62
2024/02/02 01:33:04;;;;;;;16.73;7.22;;;;;;;;;;5071759;28;20057;-62
2024/02/02 01:35:31;;;;;;;17.65;7.20;;;;;;;;;;5072106;28;20058;-61
2024/02/02 01:37:58;;;;;;;21.52;6.93;;;;;;;;;;5072166;28;20049;-61
2024/02/02 01:40:25;;;;;;;18.88;7.50;;;;;;;;;;5072206;28;20052;-61
2024/02/02 01:42:51;;;;;;;20.60;7.72;;;;;;;;;;5071811;28;20053;-61
2024/02/02 01:45:18;;;;;;;20.65;7.45;;;;;;;;;;5072133;28;20483;-61
2024/02/02 01:47:45;;;;;;;17.75;7.20;;;;;;;;;;5072086;28;20052;-61
2024/02/02 01:50:14;;;;;;;19.02;7.10;;;;;;;;;;5071905;28;20067;-62
2024/02/02 01:52:40;;;;;;;19.48;7.03;;;;;;;;;;5074304;28;20053;-62
2024/02/02 01:55:08;;;;;;;22.08;8.40;;;;;;;;;;5075471;28;20052;-62
2024/02/02 01:57:35;;;;;;;19.13;7.22;;;;;;;;;;5075319;28;20494;-61
2024/02/02 02:00:04;;;;;;;14.65;7.25;;;;;;;;;;5075298;28;20052;-61
2024/02/02 02:02:31;;;;;;;18.42;7.53;;;;;;;;;;5075305;28;20055;-61
2024/02/02 02:04:58;;;;;;;18.30;6.95;;;;;;;;;;5075383;28;20060;-61
2024/02/02 02:07:27;;;;;;;23.77;8.48;;;;;;;;;;5075512;28;20428;-62
2024/02/02 02:09:54;;;;;;;18.63;6.67;;;;;;;;;;5075307;28;20049;-61
2024/02/02 02:12:21;;;;;;;24.85;8.30;;;;;;;;;;5075384;28;20470;-61
2024/02/02 02:14:47;;;;;;;20.98;7.50;;;;;;;;;;5075110;28;20056;-61
2024/02/02 02:17:14;;;;;;;18.98;7.95;;;;;;;;;;5075234;28;20044;-62
2024/02/02 02:19:41;;;;;;;22.35;7.68;;;;;;;;;;5075230;28;20059;-62
2024/02/02 02:22:09;;;;;;;20.65;8.05;;;;;;;;;;5075232;28;20053;-62
2024/02/02 02:24:36;;;;;;;26.55;8.85;;;;;;;;;;5074742;28;20056;-62
2024/02/02 02:27:03;;;;;;;20.88;7.03;;;;;;;;;;5074689;28;20052;-62
2024/02/02 02:29:30;;;;;;;25.50;7.93;;;;;;;;;;5074787;28;20055;-62
2024/02/02 02:31:57;;;;;;;24.60;7.93;;;;;;;;;;5074625;28;20053;-62
2024/02/02 02:34:26;;;;;;;17.27;7.05;;;;;;;;;;5074844;28;20056;-62
2024/02/02 02:36:53;;;;;;;20.90;7.45;;;;;;;;;;5074598;28;20084;-62
2024/02/02 02:39:21;;;;;;;21.73;7.30;;;;;;;;;;5074530;28;20060;-62
2024/02/02 02:41:48;;;;;;;20.48;7.15;;;;;;;;;;5074605;28;20052;-62
2024/02/02 02:44:14;;;;;;;23.40;7.43;;;;;;;;;;5074725;28;20053;-62
2024/02/02 02:46:42;;;;;;;22.63;7.10;;;;;;;;;;5074826;28;20053;-62
2024/02/02 02:49:09;;;;;;;20.42;7.93;;;;;;;;;;5074454;28;20418;-62
2024/02/02 02:51:36;;;;;;;21.73;6.18;;;;;;;;;;5074847;28;20444;-62
2024/02/02 02:54:03;;;;;;;24.10;7.10;;;;;;;;;;5074713;28;20067;-62
2024/02/02 02:56:31;;;;;;;17.13;6.35;;;;;;;;;;5074797;28;20475;-62
2024/02/02 02:58:58;;;;;;;14.77;5.68;;;;;;;;;;5074555;28;20055;-62
2024/02/02 03:01:25;;;;;;;16.45;6.15;;;;;;;;;;5074639;28;20048;-62
2024/02/02 03:03:51;;;;;;;18.13;7.18;;;;;;;;;;5074073;28;20056;-62
2024/02/02 03:06:18;;;;;;;17.45;6.60;;;;;;;;;;5074468;28;20056;-62
2024/02/02 03:08:45;;;;;;;23.77;6.10;;;;;;;;;;5074179;28;20052;-60
2024/02/02 03:11:13;;;;;;;15.02;5.95;;;;;;;;;;5074231;28;20052;-62
2024/02/02 03:13:41;;;;;;;15.40;5.97;;;;;;;;;;5073883;28;20052;-62
2024/02/02 03:16:08;;;;;;;17.05;6.10;;;;;;;;;;5073655;28;20052;-60
2024/02/02 03:18:35;;;;;;;16.85;6.28;;;;;;;;;;5073771;28;20056;-60
2024/02/02 03:21:02;;;;;;;17.73;6.13;;;;;;;;;;5074206;28;20052;-61
2024/02/02 03:23:29;;;;;;;15.93;5.63;;;;;;;;;;5074022;28;20052;-61
2024/02/02 03:25:56;;;;;;;14.93;5.22;;;;;;;;;;5073831;28;20088;-61
2024/02/02 03:28:22;;;;;;;19.52;6.30;;;;;;;;;;5073998;28;20487;-61
2024/02/02 03:30:51;;;;;;;14.60;5.78;;;;;;;;;;5073977;28;20048;-60
2024/02/02 03:33:17;;;;;;;17.05;5.80;;;;;;;;;;5073500;28;20075;-61
2024/02/02 03:35:44;;;;;;;23.35;6.10;;;;;;;;;;5073752;28;20057;-60
2024/02/02 03:38:11;;;;;;;13.00;5.22;;;;;;;;;;5073662;28;20049;-62
2024/02/02 03:40:38;;;;;;;16.60;5.55;;;;;;;;;;5073726;28;20049;-63
2024/02/02 03:43:05;;;;;;;15.30;5.47;;;;;;;;;;5073439;28;20048;-61
2024/02/02 03:45:32;;;;;;;17.40;5.60;;;;;;;;;;5073463;28;20053;-60
2024/02/02 03:48:00;;;;;;;13.65;5.00;;;;;;;;;;5073562;28;20048;-60
2024/02/02 03:50:27;;;;;;;11.40;4.32;;;;;;;;;;5073540;28;20052;-60
2024/02/02 03:52:55;;;;;;;15.48;5.55;;;;;;;;;;5073230;28;20052;-61
2024/02/02 03:55:21;;;;;;;16.48;5.55;;;;;;;;;;5073226;28;20063;-60
2024/02/02 03:57:48;;;;;;;16.15;5.80;;;;;;;;;;5073252;28;20506;-60
2024/02/02 04:00:16;;;;;;;16.20;5.22;;;;;;;;;;5073243;28;20060;-60
2024/02/02 04:02:43;;;;;;;16.35;5.55;;;;;;;;;;5072844;28;20058;-60
2024/02/02 04:05:11;;;;;;;18.75;6.30;;;;;;;;;;5073140;28;20052;-60
2024/02/02 04:07:38;;;;;;;19.05;5.63;;;;;;;;;;5072832;28;20052;-60
2024/02/02 04:10:07;;;;;;;19.05;6.40;;;;;;;;;;5072653;28;20060;-60
2024/02/02 04:12:33;;;;;;;17.08;6.00;;;;;;;;;;5072819;28;20056;-61
2024/02/02 04:15:00;;;;;;;17.95;6.82;;;;;;;;;;5072010;28;20056;-60
2024/02/02 04:17:27;;;;;;;13.98;5.47;;;;;;;;;;5073034;28;20048;-61
2024/02/02 04:19:54;;;;;;;17.20;6.25;;;;;;;;;;5072842;28;20063;-60
2024/02/02 04:22:22;;;;;;;17.90;6.45;;;;;;;;;;5072490;28;20072;-60
2024/02/02 04:24:49;;;;;;;17.45;5.88;;;;;;;;;;5072402;28;20056;-62
2024/02/02 04:27:16;;;;;;;24.33;6.32;;;;;;;;;;5072503;28;20059;-60
2024/02/02 04:29:43;;;;;;;18.73;6.13;;;;;;;;;;5072631;28;20044;-61
2024/02/02 04:32:10;;;;;;;22.05;6.88;;;;;;;;;;5072732;28;20063;-61
2024/02/02 04:34:37;;;;;;;18.02;6.53;;;;;;;;;;5072648;28;20095;-61
2024/02/02 04:37:04;;;;;;;20.17;6.55;;;;;;;;;;5072818;28;20049;-61
2024/02/02 04:39:32;;;;;;;22.90;6.63;;;;;;;;;;5072427;28;20044;-62
2024/02/02 04:41:59;;;;;;;19.90;6.85;;;;;;;;;;5072672;28;20052;-62
2024/02/02 04:44:26;;;;;;;17.70;6.20;;;;;;;;;;5071659;28;20068;-61
2024/02/02 04:46:52;;;;;;;20.42;6.85;;;;;;;;;;5072102;28;20048;-61
2024/02/02 04:49:19;;;;;;;13.63;5.85;;;;;;;;;;5072057;28;20052;-61
2024/02/02 04:51:46;;;;;;;17.80;5.82;;;;;;;;;;5072209;28;20052;-61
2024/02/02 04:54:13;;;;;;;18.35;5.93;;;;;;;;;;5072563;28;20494;-62
2024/02/02 04:56:41;;;;;;;22.58;6.43;;;;;;;;;;5072469;28;20463;-61
2024/02/02 04:59:08;;;;;;;18.08;6.55;;;;;;;;;;5072551;28;20048;-62
2024/02/02 05:01:35;;;;;;;20.45;6.75;;;;;;;;;;5072593;28;20056;-62
2024/02/02 05:04:02;;;;;;;20.23;6.88;;;;;;;;;;5072327;28;20053;-62
2024/02/02 05:06:29;;;;;;;17.83;5.45;;;;;;;;;;5072322;28;20048;-62
2024/02/02 05:08:55;;;;;;;20.27;6.28;;;;;;;;;;5071831;28;20053;-62
2024/02/02 05:11:22;;;;;;;21.17;6.22;;;;;;;;;;5072376;28;20060;-61
2024/02/02 05:13:51;;;;;;;15.60;6.30;;;;;;;;;;5072074;28;20055;-61
2024/02/02 05:16:18;;;;;;;17.92;6.10;;;;;;;;;;5071788;28;20394;-61
2024/02/02 05:18:44;;;;;;;16.92;6.25;;;;;;;;;;5071791;28;20049;-62
2024/02/02 05:21:11;;;;;;;15.80;6.03;;;;;;;;;;5072310;28;20501;-61
2024/02/02 05:23:38;;;;;;;18.10;6.40;;;;;;;;;;5071886;28;20056;-61
2024/02/02 05:26:05;;;;;;;15.80;6.07;;;;;;;;;;5072395;28;20057;-61
2024/02/02 05:28:32;;;;;;;20.38;6.45;;;;;;;;;;5075848;28;20045;-61
2024/02/02 05:31:00;;;;;;;19.67;6.05;;;;;;;;;;5075839;28;20052;-61
2024/02/02 05:33:27;;;;;;;20.30;6.30;;;;;;;;;;5075798;28;20056;-62
2024/02/02 05:35:54;;;;;;;18.42;6.18;;;;;;;;;;5076075;28;20482;-62
2024/02/02 05:38:21;;;;;;;14.52;5.97;;;;;;;;;;5075944;28;20053;-62
2024/02/02 05:40:48;;;;;;;19.30;6.25;;;;;;;;;;5075947;28;20048;-61
2024/02/02 05:43:15;;;;;;;16.20;6.20;;;;;;;;;;5075680;28;20052;-62
2024/02/02 05:45:42;;;;;;;17.33;6.10;;;;;;;;;;5075877;28;20060;-62
2024/02/02 05:48:10;;;;;;;19.55;6.60;;;;;;;;;;5075358;28;20414;-62
2024/02/02 05:50:37;;;;;;;21.33;6.50;;;;;;;;;;5075675;28;20414;-61
2024/02/02 05:53:04;;;;;;;17.17;5.63;;;;;;;;;;5075687;28;20052;-61
2024/02/02 05:55:31;;;;;;;16.17;5.68;;;;;;;;;;5075629;28;20059;-61
2024/02/02 05:57:58;;;;;;;17.48;5.70;;;;;;;;;;5074459;28;20056;-62
2024/02/02 06:00:25;;;;;;;23.13;6.28;;;;;;;;;;5075674;28;20423;-61
2024/02/02 06:02:52;;;;;;;19.17;6.20;;;;;;;;;;5075395;28;20064;-62
2024/02/02 06:05:20;;;;;;;18.83;5.90;;;;;;;;;;5075466;28;20056;-63
2024/02/02 06:07:47;;;;;;;16.40;5.78;;;;;;;;;;5075064;28;20055;-62
2024/02/02 06:10:14;;;;;;;17.73;5.50;;;;;;;;;;5075230;28;20048;-61
2024/02/02 06:12:41;;;;;;;17.58;6.07;;;;;;;;;;5075296;28;20053;-61
2024/02/02 06:15:08;;;;;;;18.65;5.68;;;;;;;;;;5074759;28;20056;-61
2024/02/02 06:17:35;;;;;;;17.88;5.93;;;;;;;;;;5075048;28;20053;-61
2024/02/02 06:20:04;;;;;;;17.08;6.15;;;;;;;;;;5075102;28;20048;-61
2024/02/02 06:22:32;;;;;;;20.90;5.53;;;;;;;;;;5074871;28;20053;-62
2024/02/02 06:24:59;;;;;;;19.55;5.63;;;;;;;;;;5075127;28;20056;-61
2024/02/02 06:27:27;;;;;;;15.55;5.95;;;;;;;;;;5074861;28;20060;-61
2024/02/02 06:29:54;;;;;;;16.23;5.38;;;;;;;;;;5075108;28;20474;-61
2024/02/02 06:32:23;;;;;;;17.83;5.63;;;;;;;;;;5075068;28;20518;-61
2024/02/02 06:34:55;;;;;;;19.83;6.10;;;;;;;;;;5074970;28;20052;-61
2024/02/02 06:37:22;;;;;;;18.15;6.60;;;;;;;;;;5074345;28;20056;-61
2024/02/02 06:39:52;;;;;;;17.02;5.75;;;;;;;;;;5074446;28;20048;-61
2024/02/02 06:42:18;;;;;;;15.13;5.10;;;;;;;;;;5074535;28;20052;-61
2024/02/02 06:44:45;;;;;;;14.75;5.38;;;;;;;;;;5074642;28;20466;-60
2024/02/02 06:47:12;;;;;;;20.85;5.88;;;;;;;;;;5074830;28;20053;-61
2024/02/02 06:49:39;;;;;;;16.67;5.70;;;;;;;;;;5074564;28;20390;-61
2024/02/02 06:52:06;;;;;;;18.17;5.38;;;;;;;;;;5074099;28;20418;-61
2024/02/02 06:54:33;;;;;;;17.33;6.05;;;;;;;;;;5074433;28;20068;-60
2024/02/02 06:57:01;;;;;;;19.63;6.05;;;;;;;;;;5074529;28;20051;-61
2024/02/02 06:59:28;;;;;;;18.80;6.38;;;;;;;;;;5074455;28;20061;-60
2024/02/02 07:01:55;;;;;;;17.67;5.65;;;;;;;;;;5074241;28;20388;-61
2024/02/02 07:04:22;;;;;;;20.70;6.25;;;;;;;;;;5074040;28;20052;-61
2024/02/02 07:06:49;;;;;;;17.63;5.80;;;;;;;;;;5074210;28;20065;-61
2024/02/02 07:09:26;;;;;;;18.48;5.97;;;;;;;;;;5073933;28;20056;-60
2024/02/02 07:11:59;;;;;;;22.38;5.97;;;;;;;;;;5074098;28;20048;-61
2024/02/02 07:14:42;;;;;;;16.42;5.78;;;;;;;;;;5074109;28;20510;-61
2024/02/02 07:17:12;;;;;;;14.43;6.10;;;;;;;;;;5073680;28;20048;-61
2024/02/02 07:19:40;;;;;;;18.35;5.68;;;;;;;;;;5073286;28;20051;-61
2024/02/02 07:22:17;;;;;;;17.33;6.13;;;;;;;;;;5074122;28;20474;-60
2024/02/02 07:24:44;;;;;;;16.25;5.65;;;;;;;;;;5074124;28;20053;-61
2024/02/02 07:27:18;;;;;;;14.32;5.15;;;;;;;;;;5074038;28;20411;-60
2024/02/02 07:29:46;;;;;;;16.17;5.78;;;;;;;;;;5073967;28;20055;-61
2024/02/02 07:32:14;;;;;;;18.92;5.40;;;;;;;;;;5073999;28;20380;-61
2024/02/02 07:34:42;;;;;;;19.48;5.82;;;;;;;;;;5073861;28;20398;-61
2024/02/02 07:37:10;;;;;;;15.95;5.85;;;;;;;;;;5073551;28;20080;-61
2024/02/02 07:39:37;;;;;;;18.52;5.32;;;;;;;;;;5073645;28;20118;-61
2024/02/02 07:42:04;;;;;;;16.65;5.45;;;;;;;;;;5073451;28;20048;-61
2024/02/02 07:44:31;;;;;;;16.05;5.10;;;;;;;;;;5073622;28;20056;-61
2024/02/02 07:46:59;;;;;;;13.60;4.85;;;;;;;;;;5073304;28;20052;-59
2024/02/02 07:49:26;;;;;;;14.20;5.18;;;;;;;;;;5072648;28;20056;-61
2024/02/02 07:51:53;;;;;;;13.63;5.35;;;;;;;;;;5072627;28;20052;-61
2024/02/02 07:54:20;;;;;;;13.55;5.72;;;;;;;;;;5073326;28;20053;-60
2024/02/02 07:56:47;;;;;;;20.27;5.63;;;;;;;;;;5073446;28;20387;-61
2024/02/02 07:59:13;;;;;;;16.58;4.95;;;;;;;;;;5073042;28;20059;-60
2024/02/02 08:01:40;;;;;;;15.95;4.90;;;;;;;;;;5072895;28;20056;-61
2024/02/02 08:04:08;;;;;;;14.60;5.18;;;;;;;;;;5073271;28;20131;-61
2024/02/02 08:06:35;;;;;;;14.68;4.60;;;;;;;;;;5073311;28;20049;-61
2024/02/02 08:09:02;;;;;;;16.52;5.03;;;;;;;;;;5073148;28;20056;-60
2024/02/02 08:11:35;;;;;;;15.55;5.00;;;;;;;;;;5073287;28;20048;-60
2024/02/02 08:14:02;;;;;;;12.10;4.63;;;;;;;;;;5072461;28;20517;-61
2024/02/02 08:16:28;;;;;;;14.75;4.30;;;;;;;;;;5072564;28;20059;-61
2024/02/02 08:18:55;;;;;;;15.63;5.28;;;;;;;;;;5072947;28;20055;-61
2024/02/02 08:21:25;;;;;;;13.32;4.22;;;;;;;;;;5073039;28;20052;-61
2024/02/02 08:23:52;;;;;;;13.55;4.40;;;;;;;;;;5072740;28;20057;-61
2024/02/02 08:26:18;;;;;;;14.48;4.38;;;;;;;;;;5073154;28;20056;-61
2024/02/02 08:28:45;;;;;;;11.55;3.83;;;;;;;;;;5072605;28;20418;-61
2024/02/02 08:31:12;;;;;;;10.50;3.53;;;;;;;;;;5072961;28;20048;-61
2024/02/02 08:33:40;;;;;;;11.15;3.65;;;;;;;;;;5072768;28;20406;-61
2024/02/02 08:36:08;;;;;;;13.02;4.03;;;;;;;;;;5073006;28;20071;-61
2024/02/02 08:38:37;;;;;;;14.98;3.92;;;;;;;;;;5072944;28;20052;-60
2024/02/02 08:41:04;;;;;;;9.20;3.65;;;;;;;;;;5072194;28;20510;-60
2024/02/02 08:43:31;;;;;;;13.10;4.38;;;;;;;;;;5072381;28;20060;-61
2024/02/02 08:46:12;;;;;;;10.55;4.38;;;;;;;;;;5072672;28;20060;-61
2024/02/02 08:48:39;;;;;;;13.38;4.68;;;;;;;;;;5072663;28;20427;-61
2024/02/02 08:51:21;;;;;;;12.98;4.38;;;;;;;;;;5072617;28;20041;-60
2024/02/02 08:53:49;;;;;;;11.25;3.97;;;;;;;;;;5063506;28;20068;-61
2024/02/02 08:56:16;;;;;;;17.38;5.15;;;;;;;;;;5072670;28;20463;-60
2024/02/02 08:58:43;;;;;;;13.43;4.45;;;;;;;;;;5072496;28;20052;-61
2024/02/02 09:01:24;;;;;;;11.07;4.35;;;;;;;;;;5072417;28;20475;-61
2024/02/02 09:03:52;;;;;;;11.55;4.00;;;;;;;;;;5072474;28;20384;-61
2024/02/02 09:06:31;;;;;;;10.35;3.78;;;;;;;;;;5072554;28;20384;-61
2024/02/02 09:09:00;;;;;;;12.30;4.10;;;;;;;;;;5072597;28;20059;-61
2024/02/02 09:11:27;;;;;;;10.88;4.25;;;;;;;;;;5072502;28;20159;-61
2024/02/02 09:14:08;;;;;;;13.68;4.00;;;;;;;;;;5072337;28;20057;-61
2024/02/02 09:16:39;;;;;;;14.05;4.43;;;;;;;;;;5071943;28;20071;-60
2024/02/02 09:19:14;;;;;;;12.45;4.85;;;;;;;;;;5072447;28;20049;-61
2024/02/02 09:21:41;;;;;;;12.10;4.05;;;;;;;;;;5072174;28;20060;-61
2024/02/02 09:24:12;;;;;;;11.23;4.32;;;;;;;;;;5072236;28;20487;-60
2024/02/02 09:26:39;;;;;;;10.43;3.78;;;;;;;;;;5071991;28;20049;-61
2024/02/02 09:29:09;;;;;;;12.43;3.80;;;;;;;;;;5071757;28;20059;-61
2024/02/02 09:31:37;;;;;;;11.10;3.95;;;;;;;;;;5072205;28;20399;-61
2024/02/02 09:34:06;;;;;;;10.32;4.38;;;;;;;;;;5072210;28;20053;-61
2024/02/02 09:36:33;;;;;;;11.45;4.38;;;;;;;;;;5072405;28;20052;-60
2024/02/02 09:39:03;;;;;;;10.85;4.18;;;;;;;;;;5071895;28;20052;-59
2024/02/02 09:41:30;;;;;;;;;;;;;;;;;;5072827;28;20055;-60
2024/02/02 09:44:05;;;;;;;11.48;3.70;;;;;;;;;;5072269;28;19927;-60
2024/02/02 09:46:38;;;;;;;14.80;4.32;;;;;;;;;;5072326;28;20048;-60
2024/02/02 09:49:08;;;;;;;14.45;4.60;;;;;;;;;;5071817;28;20161;-61
2024/02/02 09:51:39;;;;;;;13.63;4.32;;;;;;;;;;5071582;28;20045;-60
2024/02/02 09:54:22;;;;;;;11.95;4.28;;;;;;;;;;5071714;28;20053;-60
2024/02/02 09:56:56;;;;;;;10.88;4.32;;;;;;;;;;5071965;28;20052;-60
2024/02/02 09:59:28;;;;;;;16.65;6.70;;;;;;;;;;5071822;28;20068;-60
2024/02/02 10:02:03;;;;;;;14.77;4.05;;;;;;;;;;5071679;28;20494;-60
2024/02/02 10:04:36;;;;;;;10.57;3.97;;;;;;;;;;5071596;28;20056;-60
2024/02/02 10:07:09;;;;;;;10.80;3.90;;;;;;;;;;5071953;28;20063;-60
2024/02/02 10:09:43;;;;;;;12.95;4.47;;;;;;;;;;5071771;28;20048;-60
2024/02/02 10:12:15;;;;;;;11.05;4.32;;;;;;;;;;5071788;28;20048;-60
2024/02/02 10:15:05;;;;;;;14.85;3.88;;;;;;;;;;5075450;28;20063;-61
2024/02/02 10:17:38;;;;;;;10.23;3.63;;;;;;;;;;5064473;28;20052;-60
2024/02/02 10:20:16;;;;;;;10.32;4.15;;;;;;;;;;5075245;28;20048;-60
2024/02/02 10:22:52;;;;;;;10.75;3.92;;;;;;;;;;5075232;28;20068;-61
2024/02/02 10:25:26;;;;;;;14.88;4.38;;;;;;;;;;5075135;28;20056;-61
2024/02/02 10:28:04;;;;;;;10.52;3.60;;;;;;;;;;5074973;28;20052;-61
2024/02/02 10:30:38;;;;;;;9.88;4.13;;;;;;;;;;5075320;28;20059;-60
2024/02/02 10:33:13;;;;;;;11.10;3.80;;;;;;;;;;5075365;28;20057;-61
2024/02/02 10:35:44;;;;;;;11.75;3.90;;;;;;;;;;5075182;28;20057;-60
2024/02/02 10:38:19;;;;;;;8.27;3.80;;;;;;;;;;5075089;28;20059;-60
2024/02/02 10:40:53;;;;;;;10.88;3.65;;;;;;;;;;5074945;28;20055;-60
2024/02/02 10:43:28;;;;;;;15.05;4.00;;;;;;;;;;5074565;28;20049;-60
2024/02/02 10:46:06;;;;;;;11.90;3.80;;;;;;;;;;5075087;28;20048;-60
2024/02/02 10:48:42;;;;;;;11.43;3.90;;;;;;;;;;5074323;28;20052;-60
2024/02/02 10:51:12;;;;;;;11.48;4.13;;;;;;;;;;5074932;28;20058;-61
2024/02/02 10:53:48;;;;;;;16.30;4.05;;;;;;;;;;5074418;28;20438;-60
2024/02/02 10:56:22;;;;;;;11.50;4.07;;;;;;;;;;5075009;28;20394;-61
2024/02/02 10:58:59;;;;;;;10.57;3.55;;;;;;;;;;5074705;28;20494;-60
2024/02/02 11:01:30;;;;;;;10.63;3.63;;;;;;;;;;5074267;28;20056;-60
2024/02/02 11:04:03;;;;;;;10.52;4.03;;;;;;;;;;5074553;28;20064;-60
2024/02/02 11:06:35;;;;;;;10.25;3.80;;;;;;;;;;5074733;28;20044;-60
2024/02/02 11:09:06;;;;;;;12.43;4.00;;;;;;;;;;5074185;28;20055;-60
2024/02/02 11:11:36;;;;;;;11.25;3.63;;;;;;;;;;5074409;28;20051;-61
2024/02/02 11:14:05;;;;;;;8.15;3.72;;;;;;;;;;5074307;28;20074;-60
2024/02/02 11:16:45;;;;;;;11.18;4.28;;;;;;;;;;5073887;28;20056;-60
2024/02/02 11:19:17;;;;;;;11.50;3.70;;;;;;;;;;5074296;28;20059;-60
2024/02/02 11:22:00;;;;;;;9.60;3.80;;;;;;;;;;5074166;28;20380;-60
2024/02/02 11:24:30;;;;;;;8.48;3.85;;;;;;;;;;5073726;28;20056;-60
2024/02/02 11:27:02;;;;;;;10.48;3.83;;;;;;;;;;5073711;28;20407;-61
2024/02/02 11:29:33;;;;;;;8.65;3.47;;;;;;;;;;5074058;28;20075;-60
2024/02/02 11:32:04;;;;;;;10.55;4.07;;;;;;;;;;5073958;28;20056;-60
2024/02/02 11:34:35;;;;;;;10.15;3.83;;;;;;;;;;5073673;28;20044;-60
2024/02/02 11:37:07;;;;;;;13.50;4.25;;;;;;;;;;5073599;28;20052;-60
2024/02/02 11:39:39;;;;;;;10.90;4.15;;;;;;;;;;5073696;28;20513;-60
2024/02/02 11:42:09;;;;;;;11.32;4.07;;;;;;;;;;5073886;28;20395;-60
2024/02/02 11:44:37;;;;;;;12.52;3.70;;;;;;;;;;5073514;28;20376;-60
2024/02/02 11:47:05;;;;;;;11.40;3.97;;;;;;;;;;5073646;28;20541;-60
2024/02/02 11:49:36;;;;;;;10.48;3.88;;;;;;;;;;5073020;28;20048;-59
2024/02/02 11:52:04;;;;;;;12.23;3.80;;;;;;;;;;5073540;28;20049;-60
2024/02/02 11:54:36;;;;;;;12.40;4.30;;;;;;;;;;5073006;28;20063;-60
2024/02/02 11:57:06;;;;;;;15.00;4.50;;;;;;;;;;5073619;28;20067;-59
2024/02/02 11:59:34;;;;;;;8.27;3.30;;;;;;;;;;5073042;28;20052;-59
2024/02/02 12:02:08;;;;;;;12.75;3.85;;;;;;;;;;5072934;28;20411;-60
2024/02/02 12:04:39;;;;;;;9.20;3.60;;;;;;;;;;5072916;28;20055;-59
2024/02/02 12:07:12;;;;;;;9.57;3.90;;;;;;;;;;5072799;28;20059;-60
2024/02/02 12:09:42;;;;;;;9.63;3.70;;;;;;;;;;5072822;28;20059;-60
2024/02/02 12:12:11;;;;;;;13.45;3.80;;;;;;;;;;5072805;28;20061;-60
2024/02/02 12:14:38;;;;;;;;;;;;;;;;;;5073456;28;20056;-60
2024/02/02 12:17:07;;;;;;;13.05;4.57;;;;;;;;;;5072897;28;20468;-60
2024/02/02 12:19:34;;;;;;;8.05;3.78;;;;;;;;;;5072711;28;20064;-60
2024/02/02 12:22:03;;;;;;;9.25;3.60;;;;;;;;;;5072910;28;20056;-60
2024/02/02 12:24:31;;;;;;;9.13;3.75;;;;;;;;;;5072538;28;20056;-60
2024/02/02 12:26:58;;;;;;;8.10;3.72;;;;;;;;;;5072928;28;20513;-60
2024/02/02 12:29:25;;;;;;;9.25;3.92;;;;;;;;;;5072676;28;20514;-61
2024/02/02 12:31:52;;;;;;;10.30;3.80;;;;;;;;;;5072939;28;20048;-61
2024/02/02 12:34:19;;;;;;;9.00;3.20;;;;;;;;;;5072687;28;20060;-61
2024/02/02 12:36:46;;;;;;;9.90;3.72;;;;;;;;;;5072452;28;20445;-61
2024/02/02 12:39:14;;;;;;;10.45;3.72;;;;;;;;;;5072687;28;20063;-61
2024/02/02 12:41:41;;;;;;;9.65;4.03;;;;;;;;;;5073430;28;20067;-60
2024/02/02 12:44:08;;;;;;;8.98;3.67;;;;;;;;;;5071736;28;20052;-61
2024/02/02 12:46:42;;;;;;;8.98;3.63;;;;;;;;;;5071818;28;20064;-61
2024/02/02 12:49:10;;;;;;;10.80;4.00;;;;;;;;;;5072375;28;20415;-61
2024/02/02 12:51:37;;;;;;;8.65;3.30;;;;;;;;;;5072499;28;20479;-61
2024/02/02 12:54:04;;;;;;;12.45;3.95;;;;;;;;;;5072600;28;20060;-61
2024/02/02 12:56:32;;;;;;;9.55;3.90;;;;;;;;;;5072426;28;20067;-60
2024/02/02 12:58:59;;;;;;;10.65;3.80;;;;;;;;;;5072136;28;20052;-61
2024/02/02 13:01:26;;;;;;;9.18;3.63;;;;;;;;;;5071936;28;20060;-61
2024/02/02 13:03:53;;;;;;;10.48;4.60;;;;;;;;;;5072560;28;20052;-61
2024/02/02 13:06:20;;;;;;;8.65;3.70;;;;;;;;;;5072120;28;20049;-61
2024/02/02 13:08:47;;;;;;;9.15;3.65;;;;;;;;;;5072186;28;20057;-61
2024/02/02 13:11:19;;;;;;;11.98;4.13;;;;;;;;;;5072219;28;20059;-61
2024/02/02 13:13:48;;;;;;;9.95;3.38;;;;;;;;;;5072508;28;20072;-62
2024/02/02 13:16:28;;;;;;;9.45;4.00;;;;;;;;;;5071774;28;20419;-61
2024/02/02 13:18:55;;;;;;;10.75;4.00;;;;;;;;;;5072028;28;20052;-62
2024/02/02 13:21:27;;;;;;;11.65;3.90;;;;;;;;;;5071896;28;20061;-61
2024/02/02 13:23:58;;;;;;;9.77;3.90;;;;;;;;;;5071866;28;20052;-61
2024/02/02 13:26:36;;;;;;;8.13;3.90;;;;;;;;;;5072141;28;20048;-61
2024/02/02 13:29:07;;;;;;;9.70;4.50;;;;;;;;;;5071965;28;20053;-62
2024/02/02 13:31:36;;;;;;;8.27;3.95;;;;;;;;;;5071881;28;20060;-61
2024/02/02 13:34:04;;;;;;;7.60;4.10;;;;;;;;;;5072018;28;20064;-62
2024/02/02 13:36:31;;;;;;;8.85;3.65;;;;;;;;;;5071981;28;20064;-61
2024/02/02 13:38:59;;;;;;;8.98;3.88;;;;;;;;;;5072052;28;20059;-61
2024/02/02 13:41:26;;;;;;;7.90;4.05;;;;;;;;;;5072264;28;20063;-61
2024/02/02 13:44:01;;;;;;;9.27;3.97;;;;;;;;;;5071649;28;20049;-61
2024/02/02 13:46:30;;;;;;;8.88;3.88;;;;;;;;;;5072004;28;20059;-61
2024/02/02 13:49:00;;;;;;;8.18;3.85;;;;;;;;;;5074511;28;20056;-61
2024/02/02 13:51:28;;;;;;;9.07;3.55;;;;;;;;;;5075732;28;20502;-61
2024/02/02 13:53:56;;;;;;;7.93;3.55;;;;;;;;;;5075825;28;20048;-61
2024/02/02 13:56:24;;;;;;;9.70;3.97;;;;;;;;;;5075427;28;20052;-61
2024/02/02 13:58:51;;;;;;;11.13;4.07;;;;;;;;;;5075755;28;20053;-61
2024/02/02 14:01:20;;;;;;;9.10;3.80;;;;;;;;;;5075340;28;20053;-61
2024/02/02 14:03:54;;;;;;;8.70;4.00;;;;;;;;;;5075590;28;20427;-62
2024/02/02 14:06:21;;;;;;;10.40;3.97;;;;;;;;;;5075322;28;20482;-61
2024/02/02 14:08:49;;;;;;;9.32;4.07;;;;;;;;;;5075530;28;20060;-61
2024/02/02 14:11:22;;;;;;;12.25;4.45;;;;;;;;;;5075034;28;20487;-61
2024/02/02 14:13:49;;;;;;;10.52;4.25;;;;;;;;;;5074498;28;20048;-61
2024/02/02 14:16:19;;;;;;;9.45;4.38;;;;;;;;;;5074870;28;20056;-61
2024/02/02 14:18:58;;;;;;;9.15;3.90;;;;;;;;;;5075607;28;20052;-61
2024/02/02 14:21:28;;;;;;;10.40;4.47;;;;;;;;;;5074990;28;20056;-60
2024/02/02 14:24:04;;;;;;;13.32;5.10;;;;;;;;;;5075373;28;20044;-62
2024/02/02 14:26:30;;;;;;;7.90;4.22;;;;;;;;;;5075160;28;20052;-61
2024/02/02 14:28:58;;;;;;;10.27;4.60;;;;;;;;;;5074871;28;20053;-61
2024/02/02 14:31:26;;;;;;;10.82;4.78;;;;;;;;;;5074797;28;20053;-61
2024/02/02 14:33:55;;;;;;;8.90;4.43;;;;;;;;;;5074852;28;20052;-61
2024/02/02 14:36:21;;;;;;;12.07;4.72;;;;;;;;;;5074977;28;20052;-61
2024/02/02 14:38:49;;;;;;;9.38;4.57;;;;;;;;;;5074853;28;20056;-61
2024/02/02 14:41:16;;;;;;;8.07;3.78;;;;;;;;;;5074965;28;20048;-61
2024/02/02 14:43:43;;;;;;;11.48;4.50;;;;;;;;;;5074522;28;20044;-61